Map

Track Data

SID SEASON NUMBER BASIN SUBBASIN NAME ISO_TIME NATURE LAT LON WMO_WIND WMO_PRES WMO_AGENCY TRACK_TYPE DIST2LAND LANDFALL IFLAG USA_AGENCY USA_ATCF_ID USA_LAT USA_LON USA_RECORD USA_STATUS USA_WIND USA_PRES USA_SSHS USA_R34_NE USA_R34_SE USA_R34_SW USA_R34_NW USA_R50_NE USA_R50_SE USA_R50_SW USA_R50_NW USA_R64_NE USA_R64_SE USA_R64_SW USA_R64_NW USA_POCI USA_ROCI USA_RMW USA_EYE TOKYO_LAT TOKYO_LON TOKYO_GRADE TOKYO_WIND TOKYO_PRES TOKYO_R50_DIR TOKYO_R50_LONG TOKYO_R50_SHORT TOKYO_R30_DIR TOKYO_R30_LONG TOKYO_R30_SHORT TOKYO_LAND CMA_LAT CMA_LON CMA_CAT CMA_WIND CMA_PRES HKO_LAT HKO_LON HKO_CAT HKO_WIND HKO_PRES NEWDELHI_LAT NEWDELHI_LON NEWDELHI_GRADE NEWDELHI_WIND NEWDELHI_PRES NEWDELHI_CI NEWDELHI_DP NEWDELHI_POCI REUNION_LAT REUNION_LON REUNION_TYPE REUNION_WIND REUNION_PRES REUNION_TNUM REUNION_CI REUNION_RMW REUNION_R34_NE REUNION_R34_SE REUNION_R34_SW REUNION_R34_NW REUNION_R50_NE REUNION_R50_SE REUNION_R50_SW REUNION_R50_NW REUNION_R64_NE REUNION_R64_SE REUNION_R64_SW REUNION_R64_NW BOM_LAT BOM_LON BOM_TYPE BOM_WIND BOM_PRES BOM_TNUM BOM_CI BOM_RMW BOM_R34_NE BOM_R34_SE BOM_R34_SW BOM_R34_NW BOM_R50_NE BOM_R50_SE BOM_R50_SW BOM_R50_NW BOM_R64_NE BOM_R64_SE BOM_R64_SW BOM_R64_NW BOM_ROCI BOM_POCI BOM_EYE BOM_POS_METHOD BOM_PRES_METHOD NADI_LAT NADI_LON NADI_CAT NADI_WIND NADI_PRES WELLINGTON_LAT WELLINGTON_LON WELLINGTON_WIND WELLINGTON_PRES DS824_LAT DS824_LON DS824_STAGE DS824_WIND DS824_PRES TD9636_LAT TD9636_LON TD9636_STAGE TD9636_WIND TD9636_PRES TD9635_LAT TD9635_LON TD9635_WIND TD9635_PRES TD9635_ROCI NEUMANN_LAT NEUMANN_LON NEUMANN_CLASS NEUMANN_WIND NEUMANN_PRES MLC_LAT MLC_LON MLC_CLASS MLC_WIND MLC_PRES USA_GUST BOM_GUST BOM_GUST_PER REUNION_GUST REUNION_GUST_PER USA_SEAHGT USA_SEARAD_NE USA_SEARAD_SE USA_SEARAD_SW USA_SEARAD_NW STORM_SPEED STORM_DIR
1991083S11100 1991 16 SI WA ERROL 1991-03-23 12:00:00 NR -11.0000 99.6000 30 1000 bom main 774 774 ______O_______ -1 -11.0000 99.6000 20 30 1000 2.50000 97 3 6 0 0
1991083S11100 1991 16 SI WA ERROL 1991-03-23 15:00:00 NR -11.0000 99.6125 main 774 774 ______P_______ -1 -11.0000 99.6125 20 32 999 91 0 0
1991083S11100 1991 16 SI WA ERROL 1991-03-23 18:00:00 NR -11.0000 99.6000 35 998 bom main 774 774 ______O_______ -1 -11.0000 99.6000 30 35 998 3.00000 85 3 6 1 270
1991083S11100 1991 16 SI WA ERROL 1991-03-23 21:00:00 NR -11.0000 99.5500 main 774 764 ______P_______ -1 -11.0000 99.5500 30 35 997 118 3 347
1991083S11100 1991 16 SI WA ERROL 1991-03-24 00:00:00 TS -10.7333 99.5333 35 996 bom main 764 757 O_____O_____O_ jtwc_sh SH181991 -10.2000 99.6000 25 -1 -11.0000 99.5000 30 35 996 3.00000 151 3 6 -10.2000 99.6000 TC 25 4 354
1991083S11100 1991 16 SI WA ERROL 1991-03-24 03:00:00 TS -10.6087 99.5088 main 757 751 P_____P_____P_ SH181991 -10.2025 99.4875 25 -1 -11.0150 99.5300 30 37 994 156 -10.2025 99.4875 TC 25 2 338
1991083S11100 1991 16 SI WA ERROL 1991-03-24 06:00:00 TS -10.5200 99.4400 40 993 bom main 760 760 O_____O_____O_ jtwc_sh SH181991 -10.2000 99.4000 25 -1 -11.0000 99.5000 30 40 993 3.00000 161 3 6 -10.2000 99.4000 TC 25 3 313
1991083S11100 1991 16 SI WA ERROL 1991-03-24 09:00:00 TS -10.4309 99.3166 main 764 764 P_____P_____P_ SH181991 -10.1925 99.3500 27 -1 -10.9076 99.2499 30 42 990 172 -10.1925 99.3500 TC 27 3 297
1991083S11100 1991 16 SI WA ERROL 1991-03-24 12:00:00 TS -10.4000 99.2000 45 988 bom main 773 773 O_____O_____O_ jtwc_sh SH181991 -10.2000 99.3000 30 -1 -10.8000 99.0000 30 45 988 3.00000 184 3 6 -10.2000 99.3000 TC 30 2 277
1991083S11100 1991 16 SI WA ERROL 1991-03-24 15:00:00 TS -10.4067 99.1208 main 779 779 P_____P_____P_ SH181991 -10.2350 99.2000 32 -1 -10.7500 98.9625 30 47 985 184 -10.2350 99.2000 TC 32 1 256
1991083S11100 1991 16 SI WA ERROL 1991-03-24 18:00:00 TS -10.4333 99.0667 50 982 bom main 779 779 O_____O_____O_ jtwc_sh SH181991 -10.3000 99.1000 35 0 -10.7000 99.0000 30 50 982 3.50000 184 3 6 -10.3000 99.1000 TC 35 1 243
1991083S11100 1991 16 SI WA ERROL 1991-03-24 21:00:00 TS -10.4667 98.9983 main 795 795 P_____P_____P_ SH181991 -10.4075 99.0125 40 0 -10.5850 98.9700 30 55 979 221 -10.4075 99.0125 TC 40 1 227
1991083S11100 1991 16 SI WA ERROL 1991-03-25 00:00:00 TS -10.5000 99.0000 60 976 bom main 795 788 O_____O_____O_ jtwc_sh SH181991 -10.5000 99.0000 45 0 -10.5000 99.0000 30 60 976 4.00000 259 3 6 -10.5000 99.0000 TC 45 2 114
1991083S11100 1991 16 SI WA ERROL 1991-03-25 03:00:00 TS -10.5267 99.1392 main 788 770 P_____P_____P_ SH181991 -10.5225 99.1200 55 0 -10.5350 99.1775 30 67 973 264 -10.5225 99.1200 TC 55 3 96
1991083S11100 1991 16 SI WA ERROL 1991-03-25 06:00:00 TS -10.5333 99.3333 75 970 bom main 770 751 O_____O_____O_ jtwc_sh SH181991 -10.5000 99.3000 65 1 -10.6000 99.4000 40 75 970 4.50000 269 10 4 6 -10.5000 99.3000 TC 65 3 85
1991083S11100 1991 16 SI WA ERROL 1991-03-25 09:00:00 TS -10.4975 99.4859 main 751 742 P_____P_____P_ SH181991 -10.4425 99.4500 77 1 -10.6075 99.5575 40 80 967 242 -10.4425 99.4500 TC 77 3 77
1991083S11100 1991 16 SI WA ERROL 1991-03-25 12:00:00 TS -10.4667 99.6333 85 965 bom main 742 724 O_____O_____O_ jtwc_sh SH181991 -10.4000 99.6000 90 2 -10.6000 99.7000 40 85 965 5.00000 215 10 4 6 -10.4000 99.6000 TC 90 3 88
1991083S11100 1991 16 SI WA ERROL 1991-03-25 15:00:00 TS -10.4850 99.7783 main 724 715 P_____P_____P_ SH181991 -10.4275 99.7500 100 3 -10.6000 99.8350 40 87 962 215 -10.4275 99.7500 TC 100 3 103
1991083S11100 1991 16 SI WA ERROL 1991-03-25 18:00:00 TS -10.5333 99.9333 90 960 bom main 715 704 O_____O_____O_ jtwc_sh SH181991 -10.5000 99.9000 110 3 -10.6000 100.000 40 90 960 5.50000 215 10 4 6 -10.5000 99.9000 TC 110 3 105
1991083S11100 1991 16 SI WA ERROL 1991-03-25 21:00:00 TS -10.5750 100.117 main 704 686 P_____P_____P_ SH181991 -10.5850 100.043 110 3 -10.5551 100.265 40 90 957 226 -10.5850 100.043 TC 110 4 110
1991083S11100 1991 16 SI WA ERROL 1991-03-26 00:00:00 TS -10.6667 100.300 90 955 bom main 693 685 O_____O_____O_ jtwc_sh SH181991 -10.7000 100.200 110 3 -10.6000 100.500 40 90 955 5.50000 238 10 4 6 -10.7000 100.200 TC 110 4 130
1991083S11100 1991 16 SI WA ERROL 1991-03-26 03:00:00 TS -10.8416 100.445 main 692 690 P_____P_____P_ SH181991 -10.8425 100.393 110 3 -10.8399 100.550 40 90 952 226 -10.8425 100.393 TC 110 5 144
1991083S11100 1991 16 SI WA ERROL 1991-03-26 06:00:00 TS -11.0667 100.600 90 950 bom main 698 690 O_____O_____O_ jtwc_sh SH181991 -11.0000 100.600 110 3 -11.2000 100.600 40 90 950 5.50000 215 10 4 6 -11.0000 100.600 TC 110 6 141
1991083S11100 1991 16 SI WA ERROL 1991-03-26 09:00:00 TS -11.3025 100.819 main 698 690 P_____P_____P_ SH181991 -11.1350 100.808 110 3 -11.6376 100.842 40 87 952 210 -11.1350 100.808 TC 110 6 138
1991083S11100 1991 16 SI WA ERROL 1991-03-26 12:00:00 TS -11.5333 101.033 85 955 bom main 700 700 O_____O_____O_ jtwc_sh SH181991 -11.3000 101.000 110 3 -12.0000 101.100 40 85 955 5.00000 205 10 4 6 -11.3000 101.000 TC 110 6 140
1991083S11100 1991 16 SI WA ERROL 1991-03-26 15:00:00 TS -11.7291 101.184 main 702 702 P_____P_____P_ SH181991 -11.5425 101.165 110 3 -12.1025 101.223 40 85 955 205 -11.5425 101.165 TC 110 5 144
1991083S11100 1991 16 SI WA ERROL 1991-03-26 18:00:00 TS -11.9000 101.300 85 955 bom main 713 713 O_____O_____O_ jtwc_sh SH181991 -11.8000 101.300 110 3 -12.1000 101.300 40 85 955 5.00000 205 3 6 -11.8000 101.300 TC 110 4 145
1991083S11100 1991 16 SI WA ERROL 1991-03-26 21:00:00 TS -12.0450 101.408 main 716 716 P_____P_____P_ SH181991 -12.0075 101.408 107 3 -12.1200 101.408 40 85 955 232 -12.0075 101.408 TC 107 4 147
1991083S11100 1991 16 SI WA ERROL 1991-03-27 00:00:00 TS -12.2000 101.500 85 955 bom main 728 728 O_____O_____O_ jtwc_sh SH181991 -12.2000 101.500 105 3 -12.2000 101.500 40 85 955 5.00000 259 3 6 -12.2000 101.500 TC 105 4 150
1991083S11100 1991 16 SI WA ERROL 1991-03-27 03:00:00 TS -12.3567 101.591 main 741 741 P_____P_____P_ SH181991 -12.3325 101.608 102 3 -12.4050 101.558 40 82 957 259 -12.3325 101.608 TC 102 5 159
1991083S11100 1991 16 SI WA ERROL 1991-03-27 06:00:00 TS -12.6333 101.667 80 960 bom main 754 754 O_____O_____O_ jtwc_sh SH181991 -12.6000 101.700 100 3 -12.7000 101.600 40 80 960 5.00000 259 3 6 -12.6000 101.700 TC 100 9 171
1991083S11100 1991 16 SI WA ERROL 1991-03-27 09:00:00 TS -13.2433 101.732 main 812 812 P_____P_____P_ SH181991 -13.3250 101.772 95 2 -13.0800 101.650 40 77 962 237 -13.3250 101.772 TC 95 11 175
1991083S11100 1991 16 SI WA ERROL 1991-03-27 12:00:00 TS -13.7333 101.767 75 965 bom main 857 847 O_____O_____O_ jtwc_sh SH181991 -13.9000 101.800 90 2 -13.4000 101.700 40 75 965 4.50000 215 3 6 -13.9000 101.800 TC 90 4 171
1991083S11100 1991 16 SI WA ERROL 1991-03-27 15:00:00 TS -13.6125 101.782 main 847 827 P_____P_____P_ SH181991 -13.6750 101.795 85 2 -13.4875 101.758 40 72 967 237 -13.6750 101.795 TC 85 4 354
1991083S11100 1991 16 SI WA ERROL 1991-03-27 18:00:00 TS -13.3667 101.733 70 970 bom main 832 832 O_____O_____O_ jtwc_sh SH181991 -13.3000 101.700 80 1 -13.5000 101.800 40 70 970 4.50000 259 3 6 -13.3000 101.700 TC 80 2 315
1991083S11100 1991 16 SI WA ERROL 1991-03-27 21:00:00 TS -13.4475 101.612 main 837 837 P_____P_____P_ SH181991 -13.3825 101.480 75 1 -13.5774 101.875 40 65 972 259 -13.3825 101.480 TC 75 4 230
1991083S11100 1991 16 SI WA ERROL 1991-03-28 00:00:00 TS -13.6333 101.400 60 975 bom main 867 867 O_____O_____O_ jtwc_sh SH181991 -13.6000 101.200 70 1 -13.7000 101.800 30 60 975 4.00000 259 3 6 -13.6000 101.200 TC 70 6 234
1991083S11100 1991 16 SI WA ERROL 1991-03-28 03:00:00 TS -13.7950 101.123 main 903 903 P_____P_____P_ SH181991 -13.7424 100.980 65 1 -13.9002 101.410 30 60 975 264 -13.7424 100.980 TC 65 7 242
1991083S11100 1991 16 SI WA ERROL 1991-03-28 06:00:00 TS -13.9667 100.767 60 975 bom main 939 939 O_____O_____O_ jtwc_sh SH181991 -13.9000 100.700 60 0 -14.1000 100.900 30 60 975 4.00000 269 3 6 -13.9000 100.700 TC 60 8 245
1991083S11100 1991 16 SI WA ERROL 1991-03-28 09:00:00 TS -14.1383 100.356 main 971 971 P_____P_____P_ SH181991 -14.1000 100.288 57 0 -14.2149 100.492 30 60 975 226 -14.1000 100.288 TC 57 9 248
1991083S11100 1991 16 SI WA ERROL 1991-03-28 12:00:00 TS -14.3000 99.9000 60 975 bom main 1020 1020 O_____O_____O_ jtwc_sh SH181991 -14.3000 99.8000 55 0 -14.3000 100.100 30 60 975 4.00000 184 3 6 -14.3000 99.8000 TC 55 9 252
1991083S11100 1991 16 SI WA ERROL 1991-03-28 15:00:00 TS -14.4283 99.4407 main 1061 1061 P_____P_____P_ SH181991 -14.4499 99.3074 52 0 -14.3849 99.7074 30 57 976 175 -14.4499 99.3074 TC 52 9 254
1991083S11100 1991 16 SI WA ERROL 1991-03-28 18:00:00 TS -14.5667 98.9667 55 978 bom main 1105 1105 O_____V_____O_ jtwc_sh SH181991 -14.6000 98.8000 50 0 -14.5000 99.3000 30 55 978 4.00000 167 3 6 -14.6000 98.8000 TC 50 10 251
1991083S11100 1991 16 SI WA ERROL 1991-03-28 21:00:00 TS -14.7566 98.4783 main 1156 1156 P_____P_____P_ SH181991 -14.8000 98.2851 47 0 -14.6699 98.8649 30 55 979 159 -14.8000 98.2851 TC 47 10 247
1991083S11100 1991 16 SI WA ERROL 1991-03-29 00:00:00 TS -14.9667 98.0000 55 980 bom main 1208 1208 O_____O_____O_ jtwc_sh SH181991 -15.0000 97.8000 45 0 -14.9000 98.4000 30 55 980 4.00000 151 3 6 -15.0000 97.8000 TC 45 10 245
1991083S11100 1991 16 SI WA ERROL 1991-03-29 03:00:00 TS -15.1740 97.5616 main 1254 1254 P_____P_____P_ SH181991 -15.1573 97.3924 42 0 -15.2075 97.9002 30 52 982 151 -15.1573 97.3924 TC 42 9 244
1991083S11100 1991 16 SI WA ERROL 1991-03-29 06:00:00 TS -15.3667 97.1333 50 985 bom main 1307 1307 O_____O_____O_ jtwc_sh SH181991 -15.3000 97.0000 40 0 -15.5000 97.4000 30 50 985 3.50000 151 3 6 -15.3000 97.0000 TC 40 9 247
1991083S11100 1991 16 SI WA ERROL 1991-03-29 09:00:00 TS -15.5291 96.6833 main 1344 1344 P_____P_____P_ SH181991 -15.4575 96.5500 40 0 -15.6723 96.9498 30 47 987 148 -15.4575 96.5500 TC 40 9 251
1991083S11100 1991 16 SI WA ERROL 1991-03-29 12:00:00 TS -15.6667 96.2333 45 990 bom main 1398 1398 O_____O_____O_ jtwc_sh SH181991 -15.6000 96.1000 40 0 -15.8000 96.5000 30 45 990 3.00000 145 3 6 -15.6000 96.1000 TC 40 9 253
1991083S11100 1991 16 SI WA ERROL 1991-03-29 15:00:00 TS -15.7907 95.8024 main 1437 1437 P_____P_____P_ SH181991 -15.7073 95.6999 37 0 -15.9574 96.0075 30 42 991 139 -15.7073 95.6999 TC 37 9 254
1991083S11100 1991 16 SI WA ERROL 1991-03-29 18:00:00 TS -15.9000 95.3667 40 993 bom main 1476 1476 O_____O_____O_ jtwc_sh SH181991 -15.8000 95.3000 35 0 -16.1000 95.5000 30 40 993 3.00000 134 3 6 -15.8000 95.3000 TC 35 9 257
1991083S11100 1991 16 SI WA ERROL 1991-03-29 21:00:00 TS -15.9975 94.8924 main 1523 1523 P_____P_____P_ SH181991 -15.8925 94.8499 35 0 -16.2075 94.9774 30 35 994 132 -15.8925 94.8499 TC 35 9 257
1991083S11100 1991 16 SI WA ERROL 1991-03-30 00:00:00 TS -16.1000 94.4333 30 996 bom main 1571 1571 O_____O_____O_ jtwc_sh SH181991 -16.0000 94.4000 35 0 -16.3000 94.5000 20 30 996 2.50000 130 3 6 -16.0000 94.4000 TC 35 9 254
1991083S11100 1991 16 SI WA ERROL 1991-03-30 03:00:00 TS -16.2308 94.0200 main 1611 1611 P_____P_____P_ SH181991 -16.1500 93.9776 35 0 -16.3924 94.1049 20 27 998 127 -16.1500 93.9776 TC 35 8 250
1991083S11100 1991 16 SI WA ERROL 1991-03-30 06:00:00 TS -16.3667 93.6667 25 1000 bom main 1650 1650 O_____O_____O_ jtwc_sh SH181991 -16.3000 93.6000 35 0 -16.5000 93.8000 20 25 1000 2.00000 124 3 6 -16.3000 93.6000 TC 35 7 247
1991083S11100 1991 16 SI WA ERROL 1991-03-30 09:00:00 TS -16.4882 93.3849 main 1681 1681 P_____P_____P_ SH181991 -16.4074 93.2924 32 -1 -16.6499 93.5700 20 25 1000 154 -16.4074 93.2924 TC 32 6 245
1991083S11100 1991 16 SI WA ERROL 1991-03-30 12:00:00 TS -16.6000 93.1333 25 1000 bom main 1713 1713 O_____O_____O_ jtwc_sh SH181991 -16.5000 93.0000 30 -1 -16.8000 93.4000 20 25 1000 2.00000 184 3 6 -16.5000 93.0000 TC 30 6 248
1991083S11100 1991 16 SI WA ERROL 1991-03-30 15:00:00 TS -16.6975 92.8524 main 1737 1737 P_____P_____P_ SH181991 -16.5925 92.6574 30 -1 -16.9075 93.2425 20 25 1001 189 -16.5925 92.6574 TC 30 6 250
1991083S11100 1991 16 SI WA ERROL 1991-03-30 18:00:00 TS -16.8000 92.5667 25 1002 bom main 1769 1769 O_____V_____O_ jtwc_sh SH181991 -16.7000 92.3000 30 -1 -17.0000 93.1000 20 25 1002 1.50000 194 3 6 -16.7000 92.3000 TC 30 6 248
1991083S11100 1991 16 SI WA ERROL 1991-03-30 21:00:00 TS -16.9233 92.2758 main 1801 1801 P_____P_____P_ SH181991 -16.8350 91.9425 30 -1 -17.1000 92.9425 20 25 1002 199 -16.8350 91.9425 TC 30 7 247
1991083S11100 1991 16 SI WA ERROL 1991-03-31 00:00:00 TS -17.0545 91.9273 25 1003 bom main 1849 1849 O_____O_____O_ jtwc_sh SH181991 -17.0000 91.6000 30 -1 -17.2000 92.8000 20 25 1003 1.50000 205 3 6 -17.0000 91.6000 TC 30 7 247
1991083S11100 1991 16 SI WA ERROL 1991-03-31 03:00:00 TS -17.2140 91.5660 main 1881 1881 P_____P_____P_ SH181991 -17.1925 91.2850 27 -1 -17.3000 92.6900 20 25 1003 215 -17.1925 91.2850 TC 27 8 244
1991083S11100 1991 16 SI WA ERROL 1991-03-31 06:00:00 TS -17.4000 91.1778 25 1004 bom main 1926 1926 O_____O_____O_ jtwc_sh SH181991 -17.4000 91.0000 25 -1 -17.4000 92.6000 20 25 1004 1.50000 226 3 6 -17.4000 91.0000 TC 25 9 244
1991083S11100 1991 16 SI WA ERROL 1991-03-31 09:00:00 TS -17.6000 90.7275 main 1979 1979 P___________P_ SH181991 -17.6000 90.7275 25 -1 20 -17.6000 90.7275 TC 25 8 238
1991083S11100 1991 16 SI WA ERROL 1991-03-31 12:00:00 TS -17.8000 90.5000 main 2010 2010 O___________O_ jtwc_sh SH181991 -17.8000 90.5000 25 -1 -17.8000 90.5000 TC 25 6 223
1991083S11100 1991 16 SI WA ERROL 1991-03-31 15:00:00 TS -18.0000 90.3325 main 2041 2041 P___________P_ SH181991 -18.0000 90.3325 25 -1 -18.0000 90.3325 TC 25 5 215
1991083S11100 1991 16 SI WA ERROL 1991-03-31 18:00:00 TS -18.2000 90.2000 main 2064 O___________O_ jtwc_sh SH181991 -18.2000 90.2000 25 -1 -18.2000 90.2000 TC 25 5 213

About IBTrACS Database

This database is a web-friendly format of International Best Track Archive for Climate Stewardship (IBTrACS), a global best track data archive curated by NOAA dating back to 1842.

Updated: 2021-10-08